Time;durP1;ratioP1;P1;durP2;ratioP2;P2;SDS_P1;SDS_P2;PMS_P1;PMS_P2;Temp;Humidity;BMP_temperature;BMP_pressure;BME280_temperature;BME280_humidity;BME280_pressure;Samples;Min_cycle;Max_cycle;Signal;HPM_P1;HPM_P2
2024/03/04 00:00:04;;;;;;;;;;;256.40;2252.80;;;;;;5061912;28;20404;-75
2024/03/04 00:02:31;;;;;;;;;;;256.40;2252.80;;;;;;5069255;28;19908;-74
2024/03/04 00:04:57;;;;;;;;;;;256.30;2252.80;;;;;;5062828;28;20266;-75
2024/03/04 00:07:24;;;;;;;;;;;256.30;2252.80;;;;;;5059249;28;19908;-74
2024/03/04 00:09:51;;;;;;;;;;;256.40;2252.80;;;;;;5072387;28;19912;-77
2024/03/04 00:12:16;;;;;;;;;;;256.30;2252.80;;;;;;5073985;28;19905;-75
2024/03/04 00:14:42;;;;;;;;;;;256.20;2252.80;;;;;;5059319;28;19905;-75
2024/03/04 00:17:09;;;;;;;;;;;256.20;2252.80;;;;;;5053722;28;19912;-76
2024/03/04 00:19:36;;;;;;;;;;;256.30;2252.80;;;;;;5053862;28;19912;-75
2024/03/04 00:22:03;;;;;;;;;;;256.30;2252.80;;;;;;5072365;28;19920;-75
2024/03/04 00:24:29;;;;;;;;;;;256.40;2252.80;;;;;;5073732;28;19958;-75
2024/03/04 00:26:54;;;;;;;;;;;256.40;2252.80;;;;;;5073493;28;19905;-74
2024/03/04 00:29:21;;;;;;;;;;;256.40;2252.80;;;;;;5081619;28;19912;-74
2024/03/04 00:31:46;;;;;;;;;;;256.40;2252.80;;;;;;5073709;28;19908;-75
2024/03/04 00:34:12;;;;;;;;;;;256.50;2252.80;;;;;;5073138;28;19905;-75
2024/03/04 00:36:38;;;;;;;;;;;256.40;2252.80;;;;;;5073751;28;19955;-75
2024/03/04 00:39:04;;;;;;;;;;;256.40;2252.80;;;;;;5073447;28;19919;-76
2024/03/04 00:41:30;;;;;;;;;;;256.40;2252.80;;;;;;5073668;28;19904;-75
2024/03/04 00:43:56;;;;;;;;;;;256.50;2252.80;;;;;;5073337;28;19905;-77
2024/03/04 00:46:23;;;;;;;;;;;256.50;2252.80;;;;;;5073539;28;20467;-74
2024/03/04 00:48:49;;;;;;;;;;;256.40;2252.80;;;;;;5073096;28;19912;-75
2024/03/04 00:51:15;;;;;;;;;;;256.40;2252.80;;;;;;5084498;28;19915;-75
2024/03/04 00:53:44;;;;;;;;;;;256.10;2252.80;;;;;;5075333;28;20006;-75
2024/03/04 00:56:13;;;;;;;;;;;256.40;2252.80;;;;;;5073305;28;19908;-75
2024/03/04 00:58:40;;;;;;;;;;;256.40;2252.80;;;;;;5078587;28;19926;-76
2024/03/04 01:01:05;;;;;;;;;;;256.30;2252.80;;;;;;5093198;28;20273;-76
2024/03/04 01:03:32;;;;;;;;;;;256.20;2252.80;;;;;;5074405;28;19904;-76
2024/03/04 01:05:59;;;;;;;;;;;256.30;2252.80;;;;;;5073349;28;20361;-79
2024/03/04 01:08:25;;;;;;;;;;;256.20;2252.80;;;;;;5073242;28;19904;-75
2024/03/04 01:10:53;;;;;;;;;;;256.20;2252.80;;;;;;5073262;28;19912;-74
2024/03/04 01:13:19;;;;;;;;;;;256.20;2252.80;;;;;;5086598;28;19912;-75
2024/03/04 01:15:47;;;;;;;;;;;256.20;2252.80;;;;;;5076028;28;19905;-75
2024/03/04 01:18:13;;;;;;;;;;;256.20;2252.80;;;;;;5076812;28;19954;-75
2024/03/04 01:20:40;;;;;;;;;;;256.20;2252.80;;;;;;5076747;28;19908;-75
2024/03/04 01:23:05;;;;;;;;;;;256.20;2252.80;;;;;;5077580;28;19909;-75
2024/03/04 01:25:31;;;;;;;;;;;256.20;2252.80;;;;;;5075768;28;20320;-79
2024/03/04 01:27:57;;;;;;;;;;;256.20;2252.80;;;;;;5083685;28;19911;-75
2024/03/04 01:30:24;;;;;;;;;;;256.20;2252.80;;;;;;5083481;28;19920;-75
2024/03/04 01:32:50;;;;;;;;;;;256.20;2252.80;;;;;;5076693;28;20293;-74
2024/03/04 01:35:16;;;;;;;;;;;256.20;2252.80;;;;;;5076642;28;19904;-76
2024/03/04 01:37:42;;;;;;;;;;;256.10;2252.80;;;;;;5076799;28;19904;-74
2024/03/04 01:40:08;;;;;;;;;;;256.20;2252.80;;;;;;5076716;28;19991;-75
2024/03/04 01:42:34;;;;;;;;;;;256.10;2252.80;;;;;;5083724;28;20019;-75
2024/03/04 01:45:00;;;;;;;;;;;256.20;2252.80;;;;;;5082936;28;19912;-75
2024/03/04 01:47:25;;;;;;;;;;;256.10;2252.80;;;;;;5076596;28;19912;-76
2024/03/04 01:49:52;;;;;;;;;;;256.20;2252.80;;;;;;5076178;28;19908;-74
2024/03/04 01:52:19;;;;;;;;;;;256.20;2252.80;;;;;;5075113;28;19912;-75
2024/03/04 01:54:46;;;;;;;;;;;256.20;2252.80;;;;;;5076143;28;19908;-79
2024/03/04 01:57:15;;;;;;;;;;;256.20;2252.80;;;;;;5076234;28;19905;-76
2024/03/04 01:59:41;;;;;;;;;;;256.20;2252.80;;;;;;5075677;28;19966;-76
2024/03/04 02:02:07;;;;;;;;;;;256.30;2252.80;;;;;;5088664;28;20393;-75
2024/03/04 02:04:33;;;;;;;;;;;256.30;2252.80;;;;;;5076047;28;19987;-76
2024/03/04 02:07:00;;;;;;;;;;;256.20;2252.80;;;;;;5084590;28;19911;-74
2024/03/04 02:09:26;;;;;;;;;;;256.30;2252.80;;;;;;5081132;28;19999;-75
2024/03/04 02:11:52;;;;;;;;;;;256.40;2252.80;;;;;;5076192;28;19972;-75
2024/03/04 02:14:18;;;;;;;;;;;256.20;2252.80;;;;;;5076201;28;19966;-75
2024/03/04 02:16:44;;;;;;;;;;;256.10;2252.80;;;;;;5076111;28;19965;-75
2024/03/04 02:19:13;;;;;;;;;;;256.10;2252.80;;;;;;5074517;28;19908;-75
2024/03/04 02:21:41;;;;;;;;;;;256.20;2252.80;;;;;;5075866;28;19917;-74
2024/03/04 02:24:07;;;;;;;;;;;256.10;2252.80;;;;;;5075853;28;19983;-78
2024/03/04 02:26:33;;;;;;;;;;;256.10;2252.80;;;;;;5074807;28;20251;-76
2024/03/04 02:29:00;;;;;;;;;;;256.10;2252.80;;;;;;5077035;28;20223;-75
2024/03/04 02:31:25;;;;;;;;;;;256.10;2252.80;;;;;;5087658;28;20276;-75
2024/03/04 02:33:52;;;;;;;;;;;256.10;2252.80;;;;;;5075387;28;19995;-75
2024/03/04 02:36:17;;;;;;;;;;;256.00;2252.80;;;;;;5075840;28;19904;-75
2024/03/04 02:38:43;;;;;;;;;;;256.00;2252.80;;;;;;5075762;28;19947;-75
2024/03/04 02:41:09;;;;;;;;;;;256.00;2252.80;;;;;;5075459;28;19908;-79
2024/03/04 02:43:35;;;;;;;;;;;256.00;2252.80;;;;;;5073849;28;19958;-75
2024/03/04 02:46:01;;;;;;;;;;;256.00;2252.80;;;;;;5075605;28;20288;-75
2024/03/04 02:48:26;;;;;;;;;;;256.50;2252.80;;;;;;5088642;28;20369;-75
2024/03/04 02:50:52;;;;;;;;;;;256.10;2252.80;;;;;;5075436;28;19917;-75
2024/03/04 02:53:17;;;;;;;;;;;231.30;2252.80;;;;;;5075317;28;20353;-76
2024/03/04 02:55:43;;;;;;;;;;;256.00;2252.80;;;;;;5075595;28;19904;-75
2024/03/04 02:58:09;;;;;;;;;;;231.30;2252.80;;;;;;5088354;28;20277;-75
2024/03/04 03:00:35;;;;;;;;;;;231.30;2252.80;;;;;;5073625;28;19911;-75
2024/03/04 03:03:00;;;;;;;;;;;231.10;2252.80;;;;;;5073575;28;19904;-74
2024/03/04 03:05:26;;;;;;;;;;;231.10;2252.80;;;;;;5073831;28;19904;-75
2024/03/04 03:07:52;;;;;;;;;;;231.20;2252.80;;;;;;5076324;28;19904;-75
2024/03/04 03:10:18;;;;;;;;;;;231.10;2252.80;;;;;;5085553;28;19912;-74
2024/03/04 03:12:43;;;;;;;;;;;231.10;2252.80;;;;;;5074524;28;20016;-75
2024/03/04 03:15:09;;;;;;;;;;;231.10;2252.80;;;;;;5074969;28;19912;-79
2024/03/04 03:17:36;;;;;;;;;;;231.10;2252.80;;;;;;5074394;28;20009;-76
2024/03/04 03:20:22;;;;;;;;;;;231.10;2252.80;;;;;;5074718;28;20399;-75
2024/03/04 03:22:51;;;;;;;;;;;231.00;2252.80;;;;;;5074620;28;19924;-76
2024/03/04 03:25:16;;;;;;;;;;;231.10;2252.80;;;;;;5086506;28;19931;-75
2024/03/04 03:27:42;;;;;;;;;;;231.00;2252.80;;;;;;5076200;28;19943;-78
2024/03/04 03:30:08;;;;;;;;;;;231.00;2252.80;;;;;;5074283;28;20006;-75
2024/03/04 03:32:37;;;;;;;;;;;231.10;2252.80;;;;;;5074019;28;19905;-75
2024/03/04 03:35:04;;;;;;;;;;;231.10;2252.80;;;;;;5073189;28;19904;-76
2024/03/04 03:37:29;;;;;;;;;;;231.10;2252.80;;;;;;5073111;28;19908;-77
2024/03/04 03:39:55;;;;;;;;;;;231.00;2252.80;;;;;;5074454;28;19911;-75
2024/03/04 03:42:21;;;;;;;;;;;231.10;2252.80;;;;;;5074184;28;19991;-76
2024/03/04 03:44:47;;;;;;;;;;;231.00;2252.80;;;;;;5074365;28;19955;-76
2024/03/04 03:47:12;;;;;;;;;;;231.00;2252.80;;;;;;5078874;28;19954;-76
2024/03/04 03:49:38;;;;;;;;;;;231.00;2252.80;;;;;;5081651;28;19905;-80
2024/03/04 03:52:04;;;;;;;;;;;231.00;2252.80;;;;;;5073973;28;19919;-75
2024/03/04 03:54:29;;;;;;;;;;;231.00;2252.80;;;;;;5074294;28;19916;-73
2024/03/04 03:56:55;;;;;;;;;;;230.90;2252.80;;;;;;5073958;28;20479;-73
2024/03/04 03:59:20;;;;;;;;;;;231.00;2252.80;;;;;;5073954;28;20368;-73
2024/03/04 04:01:46;;;;;;;;;;;231.00;2252.80;;;;;;5078632;28;19904;-73
2024/03/04 04:04:12;;;;;;;;;;;231.00;2252.80;;;;;;5082409;28;19910;-73
2024/03/04 04:06:37;;;;;;;;;;;230.90;2252.80;;;;;;5072523;28;19904;-73
2024/03/04 04:09:04;;;;;;;;;;;230.90;2252.80;;;;;;5073974;28;19970;-73
2024/03/04 04:11:29;;;;;;;;;;;230.90;2252.80;;;;;;5073733;28;19948;-73
2024/03/04 04:13:55;;;;;;;;;;;230.90;2252.80;;;;;;5072369;28;19944;-73
2024/03/04 04:16:20;;;;;;;;;;;230.90;2252.80;;;;;;5073882;28;20320;-73
2024/03/04 04:18:46;;;;;;;;;;;231.00;2252.80;;;;;;5073821;28;19925;-73
2024/03/04 04:21:12;;;;;;;;;;;230.90;2252.80;;;;;;5072872;28;19920;-77
2024/03/04 04:23:37;;;;;;;;;;;230.90;2252.80;;;;;;5085008;28;19908;-73
2024/03/04 04:26:05;;;;;;;;;;;230.90;2252.80;;;;;;5075596;28;19912;-73
2024/03/04 04:28:30;;;;;;;;;;;230.90;2252.80;;;;;;5073365;28;19950;-74
2024/03/04 04:30:56;;;;;;;;;;;230.90;2252.80;;;;;;5072074;28;19912;-73
2024/03/04 04:33:22;;;;;;;;;;;230.90;2252.80;;;;;;5073815;28;19913;-74
2024/03/04 04:35:48;;;;;;;;;;;230.90;2252.80;;;;;;5073270;28;19908;-77
2024/03/04 04:38:14;;;;;;;;;;;230.90;2252.80;;;;;;5073472;28;19904;-73
2024/03/04 04:40:40;;;;;;;;;;;230.90;2252.80;;;;;;5086888;28;19940;-73
2024/03/04 04:43:06;;;;;;;;;;;230.90;2252.80;;;;;;5073342;28;19930;-72
2024/03/04 04:45:31;;;;;;;;;;;230.90;2252.80;;;;;;5073160;28;20255;-73
2024/03/04 04:47:57;;;;;;;;;;;230.90;2252.80;;;;;;5073609;28;20356;-74
2024/03/04 04:50:22;;;;;;;;;;;230.90;2252.80;;;;;;5063854;28;20361;-74
2024/03/04 04:52:48;;;;;;;;;;;230.90;2252.80;;;;;;5066346;28;19913;-73
2024/03/04 04:55:14;;;;;;;;;;;230.90;2252.80;;;;;;5070241;28;19912;-74
2024/03/04 04:57:40;;;;;;;;;;;230.90;2252.80;;;;;;5072636;28;19912;-75
2024/03/04 05:00:06;;;;;;;;;;;230.80;2252.80;;;;;;5064565;28;19909;-75
2024/03/04 05:02:32;;;;;;;;;;;230.80;2252.80;;;;;;5068630;28;19908;-75
2024/03/04 05:04:57;;;;;;;;;;;230.80;2252.80;;;;;;5062989;28;19916;-74
2024/03/04 05:07:23;;;;;;;;;;;230.80;2252.80;;;;;;5068255;28;19909;-75
2024/03/04 05:09:49;;;;;;;;;;;230.80;2252.80;;;;;;5072475;28;19953;-74
2024/03/04 05:12:15;;;;;;;;;;;230.80;2252.80;;;;;;5063020;28;20002;-74
2024/03/04 05:14:40;;;;;;;;;;;230.80;2252.80;;;;;;5069166;28;19916;-73
2024/03/04 05:17:07;;;;;;;;;;;230.80;2252.80;;;;;;5065483;28;19908;-73
2024/03/04 05:19:36;;;;;;;;;;;230.80;2252.80;;;;;;5070920;28;20345;-74
2024/03/04 05:22:02;;;;;;;;;;;230.90;2252.80;;;;;;5057578;28;20007;-73
2024/03/04 05:24:28;;;;;;;;;;;230.80;2252.80;;;;;;5069703;28;19912;-72
2024/03/04 05:26:54;;;;;;;;;;;230.90;2252.80;;;;;;5061528;28;21804;-72
2024/03/04 05:29:19;;;;;;;;;;;230.90;2252.80;;;;;;5070601;28;20277;-73
2024/03/04 05:31:52;;;;;;;;;;;230.80;2252.80;;;;;;5062998;28;20002;-73
2024/03/04 05:34:17;;;;;;;;;;;230.90;2252.80;;;;;;5062407;28;19909;-73
2024/03/04 05:36:43;;;;;;;;;;;230.90;2252.80;;;;;;5070060;28;19953;-73
2024/03/04 05:39:10;;;;;;;;;;;230.90;2252.80;;;;;;5064194;28;20361;-73
2024/03/04 05:41:35;;;;;;;;;;;230.90;2252.80;;;;;;5068962;28;19970;-72
2024/03/04 05:44:01;;;;;;;;;;;231.00;2252.80;;;;;;5065547;28;19916;-73
2024/03/04 05:46:28;;;;;;;;;;;231.00;2252.80;;;;;;5064741;28;19922;-74
2024/03/04 05:48:53;;;;;;;;;;;231.10;2252.80;;;;;;5067938;28;19969;-72
2024/03/04 05:51:19;;;;;;;;;;;231.10;2252.80;;;;;;5061840;28;20425;-75
2024/03/04 05:53:45;;;;;;;;;;;231.10;2252.80;;;;;;5064886;28;19939;-74
2024/03/04 05:56:12;;;;;;;;;;;231.20;2252.80;;;;;;5061916;28;19909;-75
2024/03/04 05:58:38;;;;;;;;;;;231.20;2252.80;;;;;;5068511;28;19909;-74
2024/03/04 06:01:03;;;;;;;;;;;231.20;2252.80;;;;;;5061860;28;19909;-74
2024/03/04 06:03:29;;;;;;;;;;;231.30;2252.80;;;;;;5064108;28;19962;-73
2024/03/04 06:05:55;;;;;;;;;;;231.30;2252.80;;;;;;5065384;28;19912;-74
2024/03/04 06:08:20;;;;;;;;;;;256.00;2252.80;;;;;;5067925;28;20358;-74
2024/03/04 06:10:46;;;;;;;;;;;256.10;2252.80;;;;;;5062040;28;19961;-75
2024/03/04 06:13:12;;;;;;;;;;;256.10;2252.80;;;;;;5065321;28;19908;-73
2024/03/04 06:15:37;;;;;;;;;;;256.20;2252.80;;;;;;5083675;28;19911;-74
2024/03/04 06:18:03;;;;;;;;;;;256.20;2252.80;;;;;;5063070;28;19939;-75
2024/03/04 06:20:29;;;;;;;;;;;256.40;2252.80;;;;;;5066617;28;19916;-75
2024/03/04 06:22:54;;;;;;;;;;;256.50;2252.80;;;;;;5067911;28;19916;-75
2024/03/04 06:25:20;;;;;;;;;;;256.60;2252.80;;;;;;5066369;28;20396;-76
2024/03/04 06:27:46;;;;;;;;;;;256.70;2252.80;;;;;;5065191;28;19909;-75
2024/03/04 06:30:13;;;;;;;;;;;256.90;2252.80;;;;;;5061201;28;20019;-77
2024/03/04 06:32:39;;;;;;;;;;;281.60;2278.40;;;;;;5071521;28;20426;-76
2024/03/04 06:35:05;;;;;;;;;;;281.70;2278.40;;;;;;5063213;28;19999;-76
2024/03/04 06:37:31;;;;;;;;;;;281.90;2278.40;;;;;;5071457;28;19947;-74
2024/03/04 06:39:57;;;;;;;;;;;282.00;2278.40;;;;;;5067106;28;19905;-77
2024/03/04 06:42:23;;;;;;;;;;;282.20;2278.40;;;;;;5058237;28;19936;-77
2024/03/04 06:44:49;;;;;;;;;;;282.10;2278.40;;;;;;5059094;28;19916;-77
2024/03/04 06:47:15;;;;;;;;;;;282.30;2278.40;;;;;;5068636;28;19963;-77
2024/03/04 06:49:41;;;;;;;;;;;282.30;2278.40;;;;;;5055910;28;19909;-76
2024/03/04 06:52:06;;;;;;;;;;;282.40;2278.40;;;;;;5060556;28;19913;-76
2024/03/04 06:54:32;;;;;;;;;;;282.50;2278.40;;;;;;5063113;28;20431;-77
2024/03/04 06:56:58;;;;;;;;;;;307.20;2304.00;;;;;;5071647;28;19952;-75
2024/03/04 06:59:23;;;;;;;;;;;307.20;2304.00;;;;;;5078047;28;19905;-76
2024/03/04 07:01:49;;;;;;;;;;;307.40;2304.00;;;;;;5061174;28;19969;-75
2024/03/04 07:04:14;;;;;;;;;;;307.60;2304.00;;;;;;5064590;28;20360;-75
2024/03/04 07:06:40;;;;;;;;;;;307.80;2304.00;;;;;;5054627;28;19915;-76
2024/03/04 07:09:06;;;;;;;;;;;307.90;2304.00;;;;;;5059824;28;19974;-75
2024/03/04 07:11:32;;;;;;;;;;;307.90;2304.00;;;;;;5068012;28;20357;-76
2024/03/04 07:13:57;;;;;;;;;;;308.00;2304.00;;;;;;5066040;28;19909;-76
2024/03/04 07:16:23;;;;;;;;;;;308.10;2304.00;;;;;;5065009;28;19908;-76
2024/03/04 07:18:49;;;;;;;;;;;332.90;2329.60;;;;;;5065184;28;19905;-75
2024/03/04 07:21:16;;;;;;;;;;;333.00;2329.60;;;;;;5064178;28;20023;-75
2024/03/04 07:23:42;;;;;;;;;;;333.20;2329.60;;;;;;5074230;28;20430;-74
2024/03/04 07:26:09;;;;;;;;;;;333.40;2329.60;;;;;;5068178;28;19908;-75
2024/03/04 07:28:37;;;;;;;;;;;333.40;2329.60;;;;;;5061270;28;19909;-76
2024/03/04 07:31:03;;;;;;;;;;;333.40;2329.60;;;;;;5057414;28;19939;-74
2024/03/04 07:33:28;;;;;;;;;;;333.40;2329.60;;;;;;5060208;28;20281;-74
2024/03/04 07:35:54;;;;;;;;;;;333.40;2329.60;;;;;;5065168;28;19914;-74
2024/03/04 07:38:19;;;;;;;;;;;333.30;2329.60;;;;;;5064747;28;19965;-80
2024/03/04 07:40:45;;;;;;;;;;;333.20;2329.60;;;;;;5056566;28;20007;-75
2024/03/04 07:43:11;;;;;;;;;;;333.20;2329.60;;;;;;5055104;28;20366;-76
2024/03/04 07:45:36;;;;;;;;;;;333.10;2329.60;;;;;;5068141;28;19966;-76
2024/03/04 07:48:02;;;;;;;;;;;333.30;2329.60;;;;;;5056446;28;19984;-77
2024/03/04 07:50:27;;;;;;;;;;;333.30;2329.60;;;;;;5076302;28;19917;-75
2024/03/04 07:52:53;;;;;;;;;;;333.50;2329.60;;;;;;5058466;28;20004;-75
2024/03/04 07:55:18;;;;;;;;;;;333.70;2329.60;;;;;;5059492;28;19908;-75
2024/03/04 07:57:44;;;;;;;;;;;358.40;2329.60;;;;;;5066727;28;19916;-76
2024/03/04 08:00:10;;;;;;;;;;;358.50;2329.60;;;;;;5063087;28;19909;-75
2024/03/04 08:02:37;;;;;;;;;;;358.70;2329.60;;;;;;5063052;28;19950;-76
2024/03/04 08:05:05;;;;;;;;;;;358.70;2329.60;;;;;;5077322;28;19916;-75
2024/03/04 08:07:31;;;;;;;;;;;358.70;2329.60;;;;;;5070434;28;19917;-75
2024/03/04 08:09:56;;;;;;;;;;;358.80;2329.60;;;;;;5055199;28;19966;-74
2024/03/04 08:12:22;;;;;;;;;;;359.00;2329.60;;;;;;5061761;28;19904;-76
2024/03/04 08:14:48;;;;;;;;;;;;;;;;;;5062152;28;19916;-73
2024/03/04 08:17:17;;;;;;;;;;;359.10;2329.60;;;;;;5059089;28;19909;-74
2024/03/04 08:19:46;;;;;;;;;;;359.20;2329.60;;;;;;5070157;28;19908;-74
2024/03/04 08:22:11;;;;;;;;;;;384.10;2329.60;;;;;;5060249;28;19920;-73
2024/03/04 08:24:41;;;;;;;;;;;384.10;2329.60;;;;;;5062628;28;19965;-77
2024/03/04 08:27:07;;;;;;;;;;;384.10;2329.60;;;;;;5064045;28;19912;-75
2024/03/04 08:29:34;;;;;;;;;;;384.10;2329.60;;;;;;5065274;28;19908;-75
2024/03/04 08:32:00;;;;;;;;;;;384.30;2329.60;;;;;;5055860;28;20373;-75
2024/03/04 08:34:27;;;;;;;;;;;384.30;2329.60;;;;;;5063760;28;19908;-75
2024/03/04 08:36:54;;;;;;;;;;;384.70;2329.60;;;;;;5071205;28;20324;-75
2024/03/04 08:39:19;;;;;;;;;;;384.70;2329.60;;;;;;5075224;28;19908;-75
2024/03/04 08:41:46;;;;;;;;;;;384.70;2329.60;;;;;;5060902;28;20364;-78
2024/03/04 08:44:12;;;;;;;;;;;384.80;2329.60;;;;;;5062887;28;19944;-74
2024/03/04 08:46:37;;;;;;;;;;;384.90;2329.60;;;;;;5057350;28;19920;-74
2024/03/04 08:49:04;;;;;;;;;;;384.90;2329.60;;;;;;5066373;28;19904;-75
2024/03/04 08:51:30;;;;;;;;;;;409.60;2355.20;;;;;;5065890;28;20289;-71
2024/03/04 08:53:56;;;;;;;;;;;409.90;2355.20;;;;;;5064520;28;19912;-73
2024/03/04 08:56:21;;;;;;;;;;;410.10;2355.20;;;;;;5056378;28;19904;-77
2024/03/04 08:58:47;;;;;;;;;;;410.10;2355.20;;;;;;5062862;28;19908;-77
2024/03/04 09:01:13;;;;;;;;;;;409.90;2355.20;;;;;;5060770;28;19904;-76
2024/03/04 09:03:40;;;;;;;;;;;410.20;2355.20;;;;;;5062875;28;19951;-74
2024/03/04 09:06:13;;;;;;;;;;;410.00;2355.20;;;;;;5061207;28;19908;-74
2024/03/04 09:08:39;;;;;;;;;;;410.30;2355.20;;;;;;5064473;28;19924;-74
2024/03/04 09:11:04;;;;;;;;;;;410.50;2355.20;;;;;;5058694;28;19913;-74
2024/03/04 09:13:30;;;;;;;;;;;410.40;2355.20;;;;;;5062806;28;19913;-77
2024/03/04 09:15:56;;;;;;;;;;;435.20;2355.20;;;;;;5068430;28;19950;-73
2024/03/04 09:18:21;;;;;;;;;;;435.20;2355.20;;;;;;5055791;28;19912;-73
2024/03/04 09:20:47;;;;;;;;;;;410.50;2355.20;;;;;;5055382;28;19913;-74
2024/03/04 09:23:14;;;;;;;;;;;410.40;2355.20;;;;;;5064013;28;20007;-76
2024/03/04 09:25:40;;;;;;;;;;;435.40;2355.20;;;;;;5066817;28;19913;-75
2024/03/04 09:28:07;;;;;;;;;;;435.60;2355.20;;;;;;5067969;28;19925;-77
2024/03/04 09:30:32;;;;;;;;;;;435.60;2355.20;;;;;;5057431;28;20004;-74
2024/03/04 09:32:58;;;;;;;;;;;435.50;2355.20;;;;;;5055399;28;19948;-78
2024/03/04 09:35:24;;;;;;;;;;;435.90;2355.20;;;;;;5075933;28;20374;-74
2024/03/04 09:37:49;;;;;;;;;;;435.90;2278.40;;;;;;5058488;28;20011;-74
2024/03/04 09:40:15;;;;;;;;;;;435.70;2278.40;;;;;;5068413;28;19905;-76
2024/03/04 09:42:45;;;;;;;;;;;435.60;2201.60;;;;;;5063528;28;19905;-75
2024/03/04 09:45:11;;;;;;;;;;;435.60;2278.40;;;;;;5071102;28;20008;-75
2024/03/04 09:47:40;;;;;;;;;;;435.60;2304.00;;;;;;5069936;28;19992;-74
2024/03/04 09:50:06;;;;;;;;;;;435.70;2304.00;;;;;;5065481;28;19951;-76
2024/03/04 09:52:33;;;;;;;;;;;435.90;2355.20;;;;;;5068245;28;19909;-76
2024/03/04 09:54:58;;;;;;;;;;;435.80;2201.60;;;;;;5063393;28;20361;-75
2024/03/04 09:57:24;;;;;;;;;;;436.10;2201.60;;;;;;5067359;28;19927;-77
2024/03/04 09:59:50;;;;;;;;;;;436.10;2073.60;;;;;;5072436;28;19951;-75
2024/03/04 10:02:17;;;;;;;;;;;460.80;2124.80;;;;;;5069755;28;19916;-76
2024/03/04 10:04:43;;;;;;;;;;;436.10;2227.20;;;;;;5058998;28;19908;-76
2024/03/04 10:07:08;;;;;;;;;;;436.10;2176.00;;;;;;5058466;28;19996;-75
2024/03/04 10:09:35;;;;;;;;;;;460.80;2150.40;;;;;;5066934;28;20449;-75
2024/03/04 10:12:02;;;;;;;;;;;460.90;2099.20;;;;;;5061944;28;19920;-75
2024/03/04 10:14:29;;;;;;;;;;;436.10;2099.20;;;;;;5068184;28;19908;-73
2024/03/04 10:16:55;;;;;;;;;;;435.90;2099.20;;;;;;5060176;28;19915;-74
2024/03/04 10:19:21;;;;;;;;;;;435.90;2201.60;;;;;;5061491;28;19913;-73
2024/03/04 10:21:47;;;;;;;;;;;435.80;2150.40;;;;;;5069180;28;19942;-75
2024/03/04 10:24:14;;;;;;;;;;;460.90;2150.40;;;;;;5058678;28;19913;-76
2024/03/04 10:26:43;;;;;;;;;;;461.00;2048.00;;;;;;5059588;28;19909;-76
2024/03/04 10:29:09;;;;;;;;;;;461.10;2022.40;;;;;;5067781;28;19908;-77
2024/03/04 10:31:37;;;;;;;;;;;461.60;1945.60;;;;;;5070555;28;20391;-77
2024/03/04 10:34:02;;;;;;;;;;;486.40;1868.80;;;;;;5064631;28;19905;-76
2024/03/04 10:36:31;;;;;;;;;;;461.40;1894.40;;;;;;5061296;28;20416;-78
2024/03/04 10:38:56;;;;;;;;;;;461.60;1894.40;;;;;;5059315;28;19904;-79
2024/03/04 10:41:26;;;;;;;;;;;486.40;1894.40;;;;;;5057780;28;19979;-77
2024/03/04 10:43:52;;;;;;;;;;;486.70;1792.00;;;;;;5072180;28;19912;-75
2024/03/04 10:46:18;;;;;;;;;;;486.80;1792.00;;;;;;5056855;28;20288;-77
2024/03/04 10:48:45;;;;;;;;;;;487.00;1766.40;;;;;;5058556;28;19911;-76
2024/03/04 10:51:11;;;;;;;;;;;487.10;1715.20;;;;;;5064532;28;19916;-76
2024/03/04 10:53:36;;;;;;;;;;;487.30;1664.00;;;;;;5061320;28;19919;-78
2024/03/04 10:56:05;;;;;;;;;;;512.60;1638.40;;;;;;5062008;28;19915;-77
2024/03/04 10:58:37;;;;;;;;;;;512.90;1689.60;;;;;;5066932;28;19912;-76
2024/03/04 11:01:04;;;;;;;;;;;537.70;1689.60;;;;;;5063062;28;19916;-76
2024/03/04 11:03:30;;;;;;;;;;;512.10;1664.00;;;;;;5063306;28;19913;-76
2024/03/04 11:05:56;;;;;;;;;;;512.10;1638.40;;;;;;5067125;28;19908;-76
2024/03/04 11:08:27;;;;;;;;;;;512.10;1689.60;;;;;;5062755;28;19915;-78
2024/03/04 11:11:05;;;;;;;;;;;512.60;1638.40;;;;;;5061656;28;19938;-77
2024/03/04 11:13:30;;;;;;;;;;;512.30;1638.40;;;;;;5085576;28;19920;-78
2024/03/04 11:16:16;;;;;;;;;;;512.30;1638.40;;;;;;5065880;28;19908;-76
2024/03/04 11:18:55;;;;;;;;;;;512.30;1612.80;;;;;;5082635;28;19912;-79
2024/03/04 11:21:21;;;;;;;;;;;487.30;1638.40;;;;;;5060902;28;20017;-79
2024/03/04 11:23:47;;;;;;;;;;;486.90;1715.20;;;;;;5072833;28;19935;-79
2024/03/04 11:26:14;;;;;;;;;;;486.80;1766.40;;;;;;5064616;28;20354;-75
2024/03/04 11:28:40;;;;;;;;;;;486.50;1792.00;;;;;;5067517;28;19955;-76
2024/03/04 11:31:26;;;;;;;;;;;486.40;1792.00;;;;;;5063679;28;20366;-75
2024/03/04 11:34:13;;;;;;;;;;;486.40;1766.40;;;;;;5061585;28;19916;-76
2024/03/04 11:36:39;;;;;;;;;;;486.40;1766.40;;;;;;5071590;28;19973;-75
2024/03/04 11:39:12;;;;;;;;;;;461.70;1740.80;;;;;;5064973;28;19909;-74
2024/03/04 11:41:41;;;;;;;;;;;486.50;1766.40;;;;;;5063388;28;20011;-76
2024/03/04 11:44:07;;;;;;;;;;;461.70;1792.00;;;;;;5068288;28;19991;-76
2024/03/04 11:46:37;;;;;;;;;;;486.40;1766.40;;;;;;5061478;28;19909;-75
2024/03/04 11:49:22;;;;;;;;;;;461.70;1715.20;;;;;;5064376;28;19905;-74
2024/03/04 11:52:05;;;;;;;;;;;486.40;1715.20;;;;;;5068275;28;19922;-75
2024/03/04 11:54:36;;;;;;;;;;;486.40;1715.20;;;;;;5067516;28;19927;-74
2024/03/04 11:57:03;;;;;;;;;;;486.40;1715.20;;;;;;5065849;28;19904;-75
2024/03/04 11:59:29;;;;;;;;;;;461.70;1766.40;;;;;;5067130;28;20321;-75
2024/03/04 12:01:55;;;;;;;;;;;461.70;1792.00;;;;;;5065781;28;19904;-75
2024/03/04 12:04:22;;;;;;;;;;;461.40;1792.00;;;;;;5059904;28;19913;-74
2024/03/04 12:06:48;;;;;;;;;;;461.40;1817.60;;;;;;5062604;28;19999;-75
2024/03/04 12:09:17;;;;;;;;;;;461.50;1792.00;;;;;;5061278;28;19948;-75
2024/03/04 12:11:43;;;;;;;;;;;461.50;1843.20;;;;;;5056241;28;20350;-75
2024/03/04 12:14:09;;;;;;;;;;;461.60;1868.80;;;;;;5057531;28;19909;-75
2024/03/04 12:16:35;;;;;;;;;;;461.70;1843.20;;;;;;5055948;28;19912;-76
2024/03/04 12:19:01;;;;;;;;;;;486.40;1843.20;;;;;;5065984;28;19912;-76
2024/03/04 12:21:28;;;;;;;;;;;486.70;1843.20;;;;;;5078037;28;19927;-75
2024/03/04 12:23:55;;;;;;;;;;;486.90;1817.60;;;;;;5062958;28;20390;-76
2024/03/04 12:26:21;;;;;;;;;;;486.80;1766.40;;;;;;5057625;28;19912;-75
2024/03/04 12:28:59;;;;;;;;;;;486.70;1715.20;;;;;;5062176;28;19916;-75
2024/03/04 12:31:24;;;;;;;;;;;486.60;1715.20;;;;;;5069619;28;20076;-76
2024/03/04 12:33:52;;;;;;;;;;;486.50;1715.20;;;;;;5069577;28;20465;-75
2024/03/04 12:36:18;;;;;;;;;;;486.70;1740.80;;;;;;5062286;28;20004;-76
2024/03/04 12:38:45;;;;;;;;;;;486.70;1792.00;;;;;;5065515;28;20395;-76
2024/03/04 12:41:17;;;;;;;;;;;487.00;1792.00;;;;;;5061877;28;19967;-75
2024/03/04 12:43:45;;;;;;;;;;;486.90;1766.40;;;;;;5056460;28;20316;-75
2024/03/04 12:46:10;;;;;;;;;;;486.90;1740.80;;;;;;5062991;28;20268;-74
2024/03/04 12:48:39;;;;;;;;;;;486.90;1792.00;;;;;;5060707;28;19974;-76
2024/03/04 12:51:04;;;;;;;;;;;486.70;1766.40;;;;;;5059469;28;20289;-75
2024/03/04 12:53:31;;;;;;;;;;;486.80;1766.40;;;;;;5053553;28;19917;-75
2024/03/04 12:55:57;;;;;;;;;;;487.10;1766.40;;;;;;5062047;28;19904;-75
2024/03/04 12:58:23;;;;;;;;;;;487.30;1766.40;;;;;;5080761;28;19909;-76
2024/03/04 13:00:48;;;;;;;;;;;487.20;1766.40;;;;;;5061941;28;20379;-76
2024/03/04 13:03:15;;;;;;;;;;;487.30;1766.40;;;;;;5053869;28;19955;-77
2024/03/04 13:05:41;;;;;;;;;;;487.10;1740.80;;;;;;5068368;28;19923;-75
2024/03/04 13:08:07;;;;;;;;;;;487.00;1740.80;;;;;;5070797;28;19905;-76
2024/03/04 13:10:33;;;;;;;;;;;487.00;1740.80;;;;;;5065555;28;19912;-75
2024/03/04 13:13:02;;;;;;;;;;;487.10;1740.80;;;;;;5066105;28;19912;-77
2024/03/04 13:15:28;;;;;;;;;;;487.30;1715.20;;;;;;5064131;28;19923;-77
2024/03/04 13:17:53;;;;;;;;;;;487.10;1715.20;;;;;;5063782;28;20277;-77
2024/03/04 13:20:19;;;;;;;;;;;487.00;1766.40;;;;;;5062610;28;19905;-75
2024/03/04 13:22:46;;;;;;;;;;;486.90;1766.40;;;;;;5067325;28;20400;-76
2024/03/04 13:25:12;;;;;;;;;;;486.80;1740.80;;;;;;5069364;28;19908;-75
2024/03/04 13:27:38;;;;;;;;;;;486.80;1792.00;;;;;;5072118;28;20327;-76
2024/03/04 13:30:05;;;;;;;;;;;486.70;1766.40;;;;;;5067376;28;19916;-75
2024/03/04 13:32:31;;;;;;;;;;;486.70;1817.60;;;;;;5068749;28;19919;-74
2024/03/04 13:34:57;;;;;;;;;;;486.40;1792.00;;;;;;5071535;28;20300;-76
2024/03/04 13:37:22;;;;;;;;;;;461.70;1817.60;;;;;;5068196;28;20284;-76